createdAt,value
2024-01-09T00:01:12.894Z,29.40
2024-01-09T00:06:16.713Z,30.00
2024-01-09T00:11:21.464Z,28.80
2024-01-09T00:16:24.772Z,28.40
2024-01-09T00:21:27.627Z,29.20
2024-01-09T00:26:32.213Z,28.40
2024-01-09T00:31:35.127Z,28.80
2024-01-09T00:36:43.422Z,28.40
2024-01-09T00:41:48.503Z,28.80
2024-01-09T00:46:51.481Z,28.20
2024-01-09T00:51:54.266Z,29.00
2024-01-09T00:56:58.434Z,27.00
2024-01-09T01:02:01.337Z,27.00
2024-01-09T01:07:04.393Z,28.80
2024-01-09T01:12:08.825Z,28.20
2024-01-09T01:17:11.719Z,27.60
2024-01-09T01:22:14.542Z,27.00
2024-01-09T01:27:18.694Z,26.20
2024-01-09T01:32:21.687Z,26.60
2024-01-09T01:37:24.683Z,26.80
2024-01-09T01:42:28.866Z,26.80
2024-01-09T01:47:31.855Z,26.60
2024-01-09T01:52:34.819Z,26.80
2024-01-09T01:57:40.162Z,26.00
2024-01-09T02:02:47.054Z,26.20
2024-01-09T02:07:51.379Z,25.80
2024-01-09T02:12:55.581Z,25.00
2024-01-09T02:17:58.632Z,26.60
2024-01-09T02:23:01.803Z,25.00
2024-01-09T02:28:13.135Z,26.20
2024-01-09T02:33:17.878Z,25.60
2024-01-09T02:38:22.603Z,25.80
2024-01-09T02:43:25.379Z,24.80
2024-01-09T02:48:29.749Z,24.60
2024-01-09T02:53:32.703Z,24.00
2024-01-09T02:58:35.886Z,26.00
2024-01-09T03:03:40.108Z,24.60
2024-01-09T03:08:42.973Z,24.20
2024-01-09T03:13:45.792Z,24.20
2024-01-09T03:18:50.067Z,24.80
2024-01-09T03:23:52.942Z,24.40
2024-01-09T03:28:55.828Z,22.40
2024-01-09T03:34:00.172Z,22.40
2024-01-09T03:39:05.346Z,23.20
2024-01-09T03:44:08.160Z,22.20
2024-01-09T03:49:13.490Z,24.40
2024-01-09T03:54:16.334Z,24.40
2024-01-09T03:59:19.194Z,23.20
2024-01-09T04:04:23.856Z,22.80
2024-01-09T04:09:27.208Z,23.20
2024-01-09T04:14:30.168Z,22.80
2024-01-09T04:19:34.411Z,22.60
2024-01-09T04:24:37.261Z,22.00
2024-01-09T04:29:40.080Z,22.00
2024-01-09T04:34:44.420Z,21.80
2024-01-09T04:39:47.311Z,20.60
2024-01-09T04:44:50.227Z,20.60
2024-01-09T04:49:54.585Z,20.80
2024-01-09T04:54:57.415Z,20.60
2024-01-09T05:00:00.524Z,20.00
2024-01-09T05:05:05.657Z,20.80
2024-01-09T05:10:09.345Z,19.00
2024-01-09T05:15:12.196Z,17.20
2024-01-09T05:20:16.490Z,19.00
2024-01-09T05:25:19.393Z,19.20
2024-01-09T05:30:22.235Z,19.00
2024-01-09T05:35:26.576Z,19.00
2024-01-09T05:40:29.539Z,19.00
2024-01-09T05:45:32.467Z,18.20
2024-01-09T05:50:36.715Z,18.80
2024-01-09T05:55:39.640Z,16.40
2024-01-09T06:00:42.545Z,16.20
2024-01-09T06:05:46.894Z,16.40
2024-01-09T06:10:49.786Z,16.40
2024-01-09T06:15:52.631Z,16.40
2024-01-09T06:20:57.081Z,19.00
2024-01-09T06:26:00.739Z,15.40
2024-01-09T06:31:03.860Z,16.00
2024-01-09T06:36:08.729Z,16.00
2024-01-09T06:41:12.162Z,16.60
2024-01-09T06:46:15.063Z,17.00
2024-01-09T06:51:19.472Z,15.20
2024-01-09T06:56:22.531Z,15.60
2024-01-09T07:01:25.450Z,15.40
2024-01-09T07:06:30.011Z,15.00
2024-01-09T07:11:32.983Z,17.60
2024-01-09T07:16:38.182Z,15.80
2024-01-09T07:21:43.337Z,13.00
2024-01-09T07:26:46.228Z,15.80
2024-01-09T07:31:49.252Z,14.80
2024-01-09T07:36:53.432Z,16.00
2024-01-09T07:41:56.354Z,14.50
2024-01-09T07:46:59.190Z,13.00
2024-01-09T07:52:03.713Z,15.60
2024-01-09T07:57:15.947Z,24.60
2024-01-09T08:02:24.538Z,24.60
2024-01-09T08:07:28.730Z,24.00
2024-01-09T08:12:32.774Z,22.00
2024-01-09T08:17:35.810Z,22.00
2024-01-09T08:22:40.390Z,20.20
2024-01-09T08:27:43.373Z,20.80
2024-01-09T08:32:46.505Z,19.40
2024-01-09T08:37:50.764Z,18.20
2024-01-09T08:42:53.808Z,18.80
2024-01-09T08:47:56.699Z,17.60
2024-01-09T08:53:00.892Z,19.00
2024-01-09T08:58:03.822Z,17.00
2024-01-09T09:03:06.861Z,17.40
2024-01-09T09:08:11.488Z,16.60
2024-01-09T09:13:14.641Z,16.00
2024-01-09T09:18:17.664Z,16.80
2024-01-09T09:23:21.961Z,14.80
2024-01-09T09:28:27.279Z,13.75
2024-01-09T09:33:34.876Z,16.00
2024-01-09T09:38:39.190Z,16.20
2024-01-09T09:43:51.105Z,15.80
2024-01-09T09:48:56.024Z,15.80
2024-01-09T09:54:03.625Z,15.00
2024-01-09T09:59:06.685Z,14.80
2024-01-09T10:04:27.835Z,14.20
2024-01-09T10:09:36.184Z,13.25
2024-01-09T10:14:40.756Z,14.00
2024-01-09T10:19:45.266Z,14.20
2024-01-09T10:24:49.545Z,15.00
2024-01-09T10:29:52.572Z,14.40
2024-01-09T10:34:55.557Z,14.75
2024-01-09T10:40:00.339Z,14.60
2024-01-09T10:45:03.926Z,12.50
2024-01-09T10:50:09.328Z,13.25
2024-01-09T10:55:14.409Z,13.00
2024-01-09T11:00:17.756Z,14.40
2024-01-09T11:05:20.867Z,12.75
2024-01-09T11:10:26.414Z,13.00
2024-01-09T11:15:34.503Z,12.50
2024-01-09T11:20:37.522Z,12.50
2024-01-09T11:25:41.922Z,12.25
2024-01-09T11:30:45.923Z,14.00
2024-01-09T11:35:50.539Z,13.00
2024-01-09T11:40:56.588Z,13.00
2024-01-09T11:45:59.867Z,13.25
2024-01-09T11:51:03.245Z,14.60
2024-01-09T11:56:12.099Z,13.25
2024-01-09T12:01:15.038Z,13.00
2024-01-09T12:06:18.653Z,12.00
2024-01-09T12:11:23.138Z,12.50
2024-01-09T12:16:26.270Z,13.25
2024-01-09T12:21:30.992Z,11.00
2024-01-09T12:26:36.218Z,12.25
2024-01-09T12:31:39.171Z,12.00
2024-01-09T12:36:42.063Z,11.25
2024-01-09T12:41:46.459Z,12.50
2024-01-09T12:46:49.990Z,12.75
2024-01-09T12:51:56.209Z,12.25
2024-01-09T12:57:01.712Z,10.75
2024-01-09T13:02:04.955Z,10.00
2024-01-09T13:07:07.869Z,12.00
2024-01-09T13:12:14.827Z,27.20
2024-01-09T13:17:20.661Z,27.20
2024-01-09T13:27:31.266Z,64.00
2024-01-09T13:32:34.189Z,73.20
2024-01-09T13:37:37.102Z,75.40
2024-01-09T13:42:41.496Z,85.80
2024-01-09T13:47:45.225Z,100.00
2024-01-09T13:52:48.238Z,103.33
2024-01-09T13:57:53.431Z,105.67
2024-01-09T14:02:58.010Z,100.00
2024-01-09T14:08:00.924Z,92.25
2024-01-09T14:13:05.401Z,87.80
2024-01-09T14:18:09.359Z,78.40
2024-01-09T14:23:12.465Z,76.40
2024-01-09T14:28:16.917Z,75.60
2024-01-09T14:33:19.900Z,76.60
2024-01-09T14:38:22.816Z,72.40
2024-01-09T14:43:27.125Z,72.20
2024-01-09T14:48:30.101Z,70.80
2024-01-09T14:53:33.597Z,69.20
2024-01-09T14:58:37.925Z,67.60
2024-01-09T15:03:43.470Z,69.00
2024-01-09T15:08:46.318Z,69.80
2024-01-09T15:13:50.568Z,69.00
2024-01-09T15:18:53.454Z,65.00
2024-01-09T15:23:56.293Z,65.80
2024-01-09T15:29:00.609Z,62.00
2024-01-09T15:34:05.037Z,64.40
2024-01-09T15:39:07.917Z,63.00
2024-01-09T15:44:13.165Z,63.20
2024-01-09T15:49:16.354Z,63.80
2024-01-09T15:54:20.746Z,62.00
2024-01-09T15:59:25.200Z,60.80
2024-01-09T16:04:30.032Z,61.00
2024-01-09T16:09:32.893Z,57.80
2024-01-09T16:14:37.970Z,57.00
2024-01-09T16:19:41.282Z,58.00
2024-01-09T16:24:44.654Z,54.40
2024-01-09T16:29:48.902Z,55.80
2024-01-09T16:34:52.317Z,55.80
2024-01-09T16:39:57.242Z,52.20
2024-01-09T16:45:01.456Z,51.00
2024-01-09T16:50:05.699Z,51.60
2024-01-09T16:55:12.424Z,51.00
2024-01-09T17:00:17.871Z,52.80
2024-01-09T17:05:21.211Z,51.00
2024-01-09T17:10:24.240Z,48.00
2024-01-09T17:15:28.760Z,47.40
2024-01-09T17:20:31.677Z,47.00
2024-01-09T17:25:34.528Z,46.80
2024-01-09T17:30:38.775Z,45.40
2024-01-09T17:35:41.657Z,45.00
2024-01-09T17:40:44.674Z,45.60
2024-01-09T17:45:49.039Z,46.60
2024-01-09T17:50:52.103Z,43.80
2024-01-09T17:55:54.959Z,42.40
2024-01-09T18:00:59.293Z,40.20
2024-01-09T18:06:02.799Z,40.20
2024-01-09T18:11:05.976Z,38.40
2024-01-09T18:16:13.080Z,37.20
2024-01-09T18:21:23.714Z,35.20
2024-01-09T18:26:26.947Z,36.60
2024-01-09T18:31:31.204Z,35.40
2024-01-09T18:36:38.887Z,35.00
2024-01-09T18:41:42.724Z,33.80
2024-01-09T18:46:47.298Z,32.20
2024-01-09T18:51:50.269Z,33.20
2024-01-09T18:56:53.286Z,32.00
2024-01-09T19:01:58.654Z,31.00
2024-01-09T19:07:01.792Z,32.40
2024-01-09T19:12:06.132Z,31.20
2024-01-09T19:17:10.395Z,29.20
2024-01-09T19:22:13.443Z,29.80
2024-01-09T19:27:16.623Z,30.80
2024-01-09T19:32:22.085Z,31.20
2024-01-09T19:37:25.096Z,30.40
2024-01-09T19:42:28.173Z,30.20
2024-01-09T19:47:32.596Z,29.80
2024-01-09T19:52:35.631Z,28.20
2024-01-09T19:57:38.622Z,28.80
2024-01-09T20:02:43.106Z,29.00
2024-01-09T20:07:46.146Z,28.60
2024-01-09T20:12:50.148Z,28.00
2024-01-09T20:17:55.512Z,27.00
2024-01-09T20:22:58.440Z,28.20
2024-01-09T20:28:01.377Z,28.20
2024-01-09T20:33:06.776Z,28.00
2024-01-09T20:38:09.961Z,27.80
2024-01-09T20:43:13.329Z,27.00
2024-01-09T20:48:17.733Z,27.40
2024-01-09T20:53:20.716Z,27.00
2024-01-09T20:58:24.879Z,26.60
2024-01-09T21:03:29.786Z,26.20
2024-01-09T21:08:32.555Z,26.00
2024-01-09T21:13:35.452Z,26.80
2024-01-09T21:18:40.725Z,26.20
2024-01-09T21:23:43.765Z,25.00
2024-01-09T21:28:46.739Z,25.60
2024-01-09T21:33:51.084Z,26.20
2024-01-09T21:38:53.889Z,26.20
2024-01-09T21:43:56.842Z,25.40
2024-01-09T21:49:01.251Z,26.00
2024-01-09T21:54:04.424Z,25.40
2024-01-09T21:59:07.320Z,25.40
2024-01-09T22:04:11.724Z,25.40
2024-01-09T22:09:14.680Z,25.80
2024-01-09T22:14:17.775Z,25.40
2024-01-09T22:19:22.197Z,25.60
2024-01-09T22:24:25.137Z,24.40
2024-01-09T22:29:28.037Z,23.60
2024-01-09T22:34:32.443Z,25.00
2024-01-09T22:39:35.266Z,22.20
2024-01-09T22:44:38.076Z,23.00
2024-01-09T22:49:42.410Z,23.00
2024-01-09T22:54:47.228Z,23.00
2024-01-09T22:59:50.563Z,21.80
2024-01-09T23:04:54.737Z,23.80
2024-01-09T23:09:57.668Z,23.00
2024-01-09T23:15:00.561Z,22.80
2024-01-09T23:20:05.923Z,23.00
2024-01-09T23:25:12.524Z,23.40
2024-01-09T23:30:15.935Z,22.80
2024-01-09T23:35:21.608Z,24.00
2024-01-09T23:40:24.653Z,22.40
2024-01-09T23:45:27.508Z,22.00
2024-01-09T23:50:31.777Z,21.00
2024-01-09T23:55:34.679Z,23.00
